createdAt,value
2018-04-29T00:01:25.659Z,97551.16
2018-04-29T00:03:53.135Z,97547.18
2018-04-29T00:06:21.177Z,97549.20
2018-04-29T00:08:48.652Z,97545.49
2018-04-29T00:11:16.112Z,97548.23
2018-04-29T00:13:43.587Z,97548.81
2018-04-29T00:16:11.052Z,97554.07
2018-04-29T00:18:38.506Z,97552.77
2018-04-29T00:21:05.983Z,97550.12
2018-04-29T00:23:33.454Z,97545.69
2018-04-29T00:26:00.952Z,97548.30
2018-04-29T00:28:28.415Z,97547.44
2018-04-29T00:30:56.263Z,97542.56
2018-04-29T00:33:24.482Z,97537.34
2018-04-29T00:35:51.945Z,97544.77
2018-04-29T00:38:19.418Z,97538.59
2018-04-29T00:40:46.885Z,97534.57
2018-04-29T00:43:14.371Z,97540.09
2018-04-29T00:45:41.844Z,97543.11
2018-04-29T00:48:09.315Z,97545.98
2018-04-29T00:50:36.791Z,97545.18
2018-04-29T00:53:04.265Z,97545.48
2018-04-29T00:55:31.740Z,97543.38
2018-04-29T00:57:59.202Z,97553.89
2018-04-29T01:00:26.808Z,97558.94
2018-04-29T01:02:54.278Z,97561.40
2018-04-29T01:05:21.748Z,97559.07
2018-04-29T01:07:49.235Z,97557.31
2018-04-29T01:10:16.697Z,97553.86
2018-04-29T01:12:44.183Z,97550.58
2018-04-29T01:15:11.644Z,97547.65
2018-04-29T01:17:39.125Z,97548.37
2018-04-29T01:20:06.596Z,97545.92
2018-04-29T01:22:34.066Z,97548.23
2018-04-29T01:25:01.558Z,97546.95
2018-04-29T01:27:29.038Z,97547.22
2018-04-29T01:29:56.532Z,97542.69
2018-04-29T01:32:24.011Z,97540.89
2018-04-29T01:34:51.484Z,97541.31
2018-04-29T01:37:18.968Z,97540.23
2018-04-29T01:39:46.440Z,97532.91
2018-04-29T01:42:13.919Z,97535.84
2018-04-29T01:44:41.404Z,97525.63
2018-04-29T01:47:08.876Z,97529.40
2018-04-29T01:49:36.373Z,97525.75
2018-04-29T01:52:03.853Z,97524.53
2018-04-29T01:54:31.335Z,97524.21
2018-04-29T01:56:58.820Z,97532.89
2018-04-29T01:59:26.285Z,97531.59
2018-04-29T02:01:53.775Z,97527.02
2018-04-29T02:04:21.240Z,97534.50
2018-04-29T02:06:48.720Z,97530.30
2018-04-29T02:09:16.213Z,97526.14
2018-04-29T02:11:43.684Z,97520.50
2018-04-29T02:14:11.187Z,97519.41
2018-04-29T02:16:38.665Z,97525.73
2018-04-29T02:19:06.347Z,97523.23
2018-04-29T02:21:33.816Z,97528.74
2018-04-29T02:24:01.283Z,97518.32
2018-04-29T02:26:28.774Z,97520.21
2018-04-29T02:28:56.244Z,97518.78
2018-04-29T02:31:23.748Z,97515.45
2018-04-29T02:33:51.215Z,97527.46
2018-04-29T02:36:18.689Z,97521.56
2018-04-29T02:38:46.176Z,97524.91
2018-04-29T02:41:13.647Z,97528.81
2018-04-29T02:43:41.286Z,97524.70
2018-04-29T02:46:08.748Z,97527.64
2018-04-29T02:48:36.231Z,97522.49
2018-04-29T02:51:03.711Z,97523.41
2018-04-29T02:53:31.202Z,97525.97
2018-04-29T02:55:58.668Z,97521.53
2018-04-29T02:58:26.324Z,97521.92
2018-04-29T03:00:53.822Z,97521.74
2018-04-29T03:03:21.295Z,97528.74
2018-04-29T03:05:48.788Z,97531.72
2018-04-29T03:08:16.262Z,97524.70
2018-04-29T03:10:43.734Z,97525.08
2018-04-29T03:13:11.211Z,97527.16
2018-04-29T03:15:38.676Z,97522.98
2018-04-29T03:18:06.166Z,97521.99
2018-04-29T03:20:33.641Z,97525.97
2018-04-29T03:23:01.129Z,97522.34
2018-04-29T03:25:28.596Z,97532.69
2018-04-29T03:27:56.092Z,97534.03
2018-04-29T03:30:23.556Z,97534.78
2018-04-29T03:32:51.020Z,97527.92
2018-04-29T03:35:18.512Z,97535.08
2018-04-29T03:37:45.982Z,97536.91
2018-04-29T03:40:13.496Z,97534.88
2018-04-29T03:42:40.964Z,97541.59
2018-04-29T03:45:08.426Z,97539.41
2018-04-29T03:47:35.904Z,97539.73
2018-04-29T03:50:03.370Z,97540.78
2018-04-29T03:52:30.864Z,97544.22
2018-04-29T03:54:58.345Z,97542.78
2018-04-29T03:57:37.574Z,97548.38
2018-04-29T04:03:18.703Z,97546.86
2018-04-29T04:05:46.172Z,97554.05
2018-04-29T04:08:13.638Z,97559.46
2018-04-29T04:10:41.135Z,97560.61
2018-04-29T04:13:08.600Z,97561.41
2018-04-29T04:15:36.097Z,97557.91
2018-04-29T04:18:03.568Z,97557.19
2018-04-29T04:20:31.062Z,97567.92
2018-04-29T04:22:58.528Z,97569.09
2018-04-29T04:25:26.000Z,97576.34
2018-04-29T04:27:53.484Z,97579.55
2018-04-29T04:30:20.958Z,97584.06
2018-04-29T04:32:48.437Z,97578.38
2018-04-29T04:35:15.910Z,97576.79
2018-04-29T04:37:43.395Z,97585.63
2018-04-29T04:40:10.949Z,97587.64
2018-04-29T04:42:38.377Z,97585.16
2018-04-29T04:45:05.846Z,97586.95
2018-04-29T04:47:33.324Z,97588.92
2018-04-29T04:50:00.812Z,97595.58
2018-04-29T04:52:28.284Z,97596.93
2018-04-29T04:54:55.769Z,97592.91
2018-04-29T04:57:23.239Z,97594.92
2018-04-29T04:59:50.708Z,97593.52
2018-04-29T05:02:18.195Z,97592.59
2018-04-29T05:04:45.672Z,97590.25
2018-04-29T05:07:13.181Z,97592.02
2018-04-29T05:09:40.664Z,97597.09
2018-04-29T05:12:08.153Z,97591.86
2018-04-29T05:14:35.636Z,97595.75
2018-04-29T05:17:03.108Z,97595.02
2018-04-29T05:19:30.599Z,97603.03
2018-04-29T05:21:58.076Z,97603.77
2018-04-29T05:24:25.543Z,97603.57
2018-04-29T05:26:53.024Z,97609.05
2018-04-29T05:29:20.493Z,97612.39
2018-04-29T05:31:47.987Z,97611.56
2018-04-29T05:34:15.452Z,97619.18
2018-04-29T05:36:42.947Z,97616.30
2018-04-29T05:39:10.419Z,97613.59
2018-04-29T05:41:37.896Z,97610.09
2018-04-29T05:44:05.376Z,97613.44
2018-04-29T05:46:32.848Z,97613.16
2018-04-29T05:49:00.328Z,97614.39
2018-04-29T05:51:27.799Z,97608.88
2018-04-29T05:53:55.294Z,97615.53
2018-04-29T05:56:22.763Z,97613.92
2018-04-29T05:58:50.608Z,97619.28
2018-04-29T06:01:18.104Z,97619.04
2018-04-29T06:03:45.571Z,97618.48
2018-04-29T06:06:13.053Z,97624.80
2018-04-29T06:08:40.521Z,97617.80
2018-04-29T06:11:07.983Z,97610.81
2018-04-29T06:13:35.464Z,97612.34
2018-04-29T06:16:02.932Z,97608.37
2018-04-29T06:18:30.436Z,97611.48
2018-04-29T06:20:57.903Z,97614.91
2018-04-29T06:23:25.373Z,97611.30
2018-04-29T06:25:52.856Z,97611.70
2018-04-29T06:28:20.331Z,97620.69
2018-04-29T06:30:47.839Z,97612.67
2018-04-29T06:33:15.312Z,97609.34
2018-04-29T06:35:42.776Z,97617.98
2018-04-29T06:38:10.259Z,97618.73
2018-04-29T06:40:37.723Z,97619.97
2018-04-29T06:43:05.220Z,97624.57
2018-04-29T06:45:32.685Z,97622.92
2018-04-29T06:48:00.155Z,97626.48
2018-04-29T06:50:27.654Z,97631.97
2018-04-29T06:52:55.117Z,97626.16
2018-04-29T06:55:22.597Z,97625.61
2018-04-29T06:57:50.063Z,97622.17
2018-04-29T07:00:17.561Z,97631.77
2018-04-29T07:02:45.024Z,97630.37
2018-04-29T07:05:12.487Z,97629.23
2018-04-29T07:07:39.969Z,97636.88
2018-04-29T07:10:07.443Z,97636.72
2018-04-29T07:12:34.923Z,97638.65
2018-04-29T07:15:02.392Z,97640.73
2018-04-29T07:17:29.856Z,97649.91
2018-04-29T07:19:57.419Z,97640.71
2018-04-29T07:22:24.852Z,97645.69
2018-04-29T07:24:52.329Z,97638.98
2018-04-29T07:27:19.786Z,97645.37
2018-04-29T07:29:47.256Z,97637.95
2018-04-29T07:32:14.747Z,97643.03
2018-04-29T07:34:42.223Z,97635.78
2018-04-29T07:37:09.707Z,97642.48
2018-04-29T07:39:37.172Z,97636.86
2018-04-29T07:42:04.645Z,97634.97
2018-04-29T07:44:32.127Z,97628.64
2018-04-29T07:46:59.596Z,97632.33
2018-04-29T07:49:27.085Z,97630.98
2018-04-29T07:51:54.560Z,97635.16
2018-04-29T07:54:22.060Z,97641.26
2018-04-29T07:56:49.545Z,97637.44
2018-04-29T07:59:17.009Z,97633.73
2018-04-29T08:01:44.487Z,97633.06
2018-04-29T08:04:11.943Z,97635.48
2018-04-29T08:06:39.519Z,97637.91
2018-04-29T08:09:06.907Z,97647.91
2018-04-29T08:11:34.373Z,97653.92
2018-04-29T08:14:01.900Z,97645.67
2018-04-29T08:16:29.367Z,97643.59
2018-04-29T08:18:56.850Z,97644.73
2018-04-29T08:21:24.871Z,97647.91
2018-04-29T08:23:52.360Z,97653.92
2018-04-29T08:26:19.823Z,97648.66
2018-04-29T08:28:47.294Z,97650.06
2018-04-29T08:31:14.787Z,97652.84
2018-04-29T08:33:42.263Z,97641.18
2018-04-29T08:36:10.114Z,97636.24
2018-04-29T08:38:37.580Z,97643.38
2018-04-29T08:41:05.051Z,97639.09
2018-04-29T08:43:32.531Z,97632.31
2018-04-29T08:45:59.988Z,97633.95
2018-04-29T08:48:28.300Z,97626.98
2018-04-29T08:50:55.755Z,97625.98
2018-04-29T08:53:23.221Z,97622.29
2018-04-29T08:55:50.742Z,97623.77
2018-04-29T08:58:18.239Z,97619.97
2018-04-29T09:00:45.720Z,97618.38
2018-04-29T09:03:13.184Z,97614.44
2018-04-29T09:05:40.653Z,97616.48
2018-04-29T09:08:08.157Z,97611.23
2018-04-29T09:10:35.630Z,97612.85
2018-04-29T09:13:03.111Z,97609.56
2018-04-29T09:15:30.580Z,97615.80
2018-04-29T09:17:58.067Z,97608.94
2018-04-29T09:20:25.553Z,97601.31
2018-04-29T09:22:53.066Z,97608.94
2018-04-29T09:25:20.586Z,97605.95
2018-04-29T09:27:48.051Z,97607.09
2018-04-29T09:30:15.517Z,97596.09
2018-04-29T09:32:42.997Z,97595.76
2018-04-29T09:35:10.468Z,97593.42
2018-04-29T09:37:37.974Z,97593.59
2018-04-29T09:40:05.440Z,97593.63
2018-04-29T09:42:33.718Z,97588.22
2018-04-29T09:45:01.203Z,97592.26
2018-04-29T09:47:28.674Z,97588.91
2018-04-29T09:49:56.160Z,97583.87
2018-04-29T09:52:23.629Z,97586.97
2018-04-29T09:54:51.096Z,97585.19
2018-04-29T09:57:18.572Z,97579.61
2018-04-29T09:59:46.039Z,97576.50
2018-04-29T10:02:13.521Z,97569.35
2018-04-29T10:04:40.983Z,97570.45
2018-04-29T10:07:08.443Z,97564.44
2018-04-29T10:09:35.948Z,97564.15
2018-04-29T10:12:03.395Z,97554.89
2018-04-29T10:14:30.894Z,97554.00
2018-04-29T10:16:58.354Z,97549.46
2018-04-29T10:19:25.819Z,97541.27
2018-04-29T10:21:53.304Z,97540.81
2018-04-29T10:24:20.771Z,97535.80
2018-04-29T10:26:48.244Z,97535.88
2018-04-29T10:29:15.708Z,97534.61
2018-04-29T10:31:43.194Z,97539.09
2018-04-29T10:34:10.660Z,97526.70
2018-04-29T10:36:38.138Z,97531.45
2018-04-29T10:39:05.607Z,97526.50
2018-04-29T10:41:33.064Z,97519.88
2018-04-29T10:44:00.541Z,97517.05
2018-04-29T10:46:27.997Z,97512.48
2018-04-29T10:48:55.471Z,97507.91
2018-04-29T10:51:22.927Z,97506.12
2018-04-29T10:53:50.392Z,97501.25
2018-04-29T10:56:17.878Z,97499.05
2018-04-29T10:58:45.448Z,97493.48
2018-04-29T11:01:12.884Z,97494.73
2018-04-29T11:03:40.348Z,97493.95
2018-04-29T11:06:07.827Z,97483.25
2018-04-29T11:08:35.302Z,97472.55
2018-04-29T11:11:02.772Z,97471.45
2018-04-29T11:13:30.253Z,97469.68
2018-04-29T11:15:57.713Z,97468.76
2018-04-29T11:18:25.193Z,97468.10
2018-04-29T11:20:52.647Z,97467.27
2018-04-29T11:23:20.116Z,97463.20
2018-04-29T11:25:47.602Z,97458.65
2018-04-29T11:28:15.061Z,97452.18
2018-04-29T11:30:42.536Z,97443.81
2018-04-29T11:33:09.988Z,97443.00
2018-04-29T11:35:37.439Z,97437.97
2018-04-29T11:38:04.907Z,97438.45
2018-04-29T11:40:32.444Z,97439.37
2018-04-29T11:42:59.878Z,97437.63
2018-04-29T11:45:27.323Z,97435.39
2018-04-29T11:47:54.772Z,97431.27
2018-04-29T11:50:22.245Z,97426.69
2018-04-29T11:52:50.198Z,97430.23
2018-04-29T11:55:17.681Z,97420.09
2018-04-29T11:57:45.147Z,97413.67
2018-04-29T12:00:12.618Z,97413.49
2018-04-29T12:02:40.177Z,97408.19
2018-04-29T12:05:07.567Z,97410.95
2018-04-29T12:07:35.037Z,97405.03
2018-04-29T12:10:02.510Z,97407.41
2018-04-29T12:12:30.251Z,97406.67
2018-04-29T12:14:57.708Z,97403.71
2018-04-29T12:17:25.158Z,97395.88
2018-04-29T12:19:52.629Z,97390.91
2018-04-29T12:22:20.098Z,97394.30
2018-04-29T12:24:48.564Z,97384.91
2018-04-29T12:27:16.016Z,97377.50
2018-04-29T12:29:43.661Z,97389.27
2018-04-29T12:32:11.123Z,97380.03
2018-04-29T12:34:38.575Z,97375.56
2018-04-29T12:37:06.066Z,97377.61
2018-04-29T12:39:33.538Z,97371.61
2018-04-29T12:42:01.040Z,97361.72
2018-04-29T12:44:28.505Z,97363.43
2018-04-29T12:46:55.963Z,97362.26
2018-04-29T12:49:24.279Z,97354.28
2018-04-29T12:51:51.730Z,97358.50
2018-04-29T12:54:19.216Z,97346.94
2018-04-29T12:56:46.672Z,97349.42
2018-04-29T12:59:14.124Z,97342.00
2018-04-29T13:01:41.595Z,97337.36
2018-04-29T13:04:09.048Z,97321.53
2018-04-29T13:06:36.549Z,97325.02
2018-04-29T13:09:04.004Z,97322.61
2018-04-29T13:11:31.471Z,97311.77
2018-04-29T13:13:58.934Z,97308.08
2018-04-29T13:16:26.387Z,97307.53
2018-04-29T13:18:53.855Z,97307.97
2018-04-29T13:21:21.312Z,97293.95
2018-04-29T13:23:48.779Z,97295.69
2018-04-29T13:26:16.236Z,97287.42
2018-04-29T13:28:43.692Z,97285.12
2018-04-29T13:31:11.173Z,97281.11
2018-04-29T13:33:38.638Z,97273.16
2018-04-29T13:36:06.203Z,97270.48
2018-04-29T13:38:33.661Z,97276.20
2018-04-29T13:41:01.120Z,97255.90
2018-04-29T13:43:28.600Z,97266.61
2018-04-29T13:45:56.059Z,97262.80
2018-04-29T13:48:23.572Z,97252.71
2018-04-29T13:50:51.051Z,97247.49
2018-04-29T13:53:18.523Z,97247.45
2018-04-29T13:55:45.999Z,97251.34
2018-04-29T13:58:14.377Z,97236.91
2018-04-29T14:00:41.873Z,97243.69
2018-04-29T14:03:09.336Z,97242.69
2018-04-29T14:05:36.800Z,97234.52
2018-04-29T14:08:04.275Z,97232.49
2018-04-29T14:10:31.831Z,97224.67
2018-04-29T14:12:59.241Z,97231.55
2018-04-29T14:15:26.708Z,97215.95
2018-04-29T14:17:54.161Z,97212.08
2018-04-29T14:20:21.863Z,97211.25
2018-04-29T14:22:49.329Z,97206.64
2018-04-29T14:25:17.185Z,97200.98
2018-04-29T14:27:44.641Z,97202.22
2018-04-29T14:30:12.123Z,97193.12
2018-04-29T14:32:39.578Z,97197.38
2018-04-29T14:35:07.049Z,97186.30
2018-04-29T14:37:34.524Z,97185.30
2018-04-29T14:40:01.986Z,97184.55
2018-04-29T14:42:29.463Z,97180.95
2018-04-29T14:44:56.918Z,97185.64
2018-04-29T14:47:24.399Z,97184.02
2018-04-29T14:49:51.945Z,97182.44
2018-04-29T14:52:19.404Z,97180.09
2018-04-29T14:54:46.883Z,97172.32
2018-04-29T14:57:14.340Z,97173.13
2018-04-29T14:59:41.888Z,97173.37
2018-04-29T15:02:09.350Z,97163.79
2018-04-29T15:04:36.808Z,97166.32
2018-04-29T15:07:04.287Z,97160.01
2018-04-29T15:09:31.755Z,97156.58
2018-04-29T15:11:59.251Z,97160.59
2018-04-29T15:14:27.527Z,97149.52
2018-04-29T15:16:54.987Z,97154.66
2018-04-29T15:19:22.472Z,97145.75
2018-04-29T15:21:49.927Z,97143.08
2018-04-29T15:24:17.667Z,97143.82
2018-04-29T15:26:45.140Z,97147.80
2018-04-29T15:29:12.601Z,97146.09
2018-04-29T15:31:40.075Z,97142.46
2018-04-29T15:34:07.535Z,97133.61
2018-04-29T15:36:35.028Z,97128.72
2018-04-29T15:39:02.493Z,97130.84
2018-04-29T15:41:29.968Z,97117.45
2018-04-29T15:43:57.463Z,97110.70
2018-04-29T15:46:24.925Z,97112.57
2018-04-29T15:48:52.400Z,97108.10
2018-04-29T15:51:19.863Z,97108.70
2018-04-29T15:53:47.323Z,97098.52
2018-04-29T15:56:14.863Z,97092.33
2018-04-29T15:58:42.325Z,97096.75
2018-04-29T16:01:09.805Z,97084.81
2018-04-29T16:03:37.286Z,97087.31
2018-04-29T16:06:04.753Z,97087.23
2018-04-29T16:08:32.223Z,97082.68
2018-04-29T16:10:59.672Z,97082.03
2018-04-29T16:13:27.140Z,97077.80
2018-04-29T16:15:54.605Z,97080.53
2018-04-29T16:18:22.146Z,97073.68
2018-04-29T16:20:49.614Z,97075.22
2018-04-29T16:23:17.071Z,97071.03
2018-04-29T16:25:44.884Z,97068.52
2018-04-29T16:28:12.342Z,97067.63
2018-04-29T16:30:39.841Z,97061.59
2018-04-29T16:33:07.302Z,97058.64
2018-04-29T16:35:34.755Z,97055.23
2018-04-29T16:38:02.304Z,97053.73
2018-04-29T16:40:29.784Z,97047.89
2018-04-29T16:42:57.262Z,97046.55
2018-04-29T16:45:24.723Z,97043.94
2018-04-29T16:47:52.220Z,97042.84
2018-04-29T16:50:19.679Z,97031.69
2018-04-29T16:52:47.145Z,97037.14
2018-04-29T16:55:14.619Z,97040.67
2018-04-29T16:57:42.085Z,97039.45
2018-04-29T17:00:09.582Z,97036.00
2018-04-29T17:02:37.045Z,97028.35
2018-04-29T17:05:04.534Z,97033.52
2018-04-29T17:07:31.992Z,97029.37
2018-04-29T17:09:59.456Z,97032.41
2018-04-29T17:12:26.967Z,97022.83
2018-04-29T17:14:54.432Z,97026.24
2018-04-29T17:17:21.923Z,97025.56
2018-04-29T17:19:49.388Z,97018.77
2018-04-29T17:22:16.872Z,97019.30
2018-04-29T17:24:44.347Z,97019.59
2018-04-29T17:27:11.806Z,97016.35
2018-04-29T17:29:39.290Z,97020.84
2018-04-29T17:32:06.831Z,97010.31
2018-04-29T17:34:34.323Z,97013.64
2018-04-29T17:37:01.787Z,97014.92
2018-04-29T17:39:29.272Z,97012.66
2018-04-29T17:41:56.729Z,97019.62
2018-04-29T17:44:24.212Z,97011.42
2018-04-29T17:46:51.672Z,97016.74
2018-04-29T17:49:19.147Z,97016.80
2018-04-29T17:51:46.602Z,97020.84
2018-04-29T17:54:14.068Z,97028.61
2018-04-29T17:56:41.554Z,97023.25
2018-04-29T17:59:09.017Z,97028.96
2018-04-29T18:01:36.504Z,97027.56
2018-04-29T18:04:03.960Z,97023.52
2018-04-29T18:06:31.427Z,97023.50
2018-04-29T18:08:58.884Z,97028.91
2018-04-29T18:11:26.369Z,97029.87
2018-04-29T18:13:53.827Z,97025.65
2018-04-29T18:16:21.287Z,97029.23
2018-04-29T18:18:48.772Z,97027.30
2018-04-29T18:21:16.268Z,97024.22
2018-04-29T18:23:43.804Z,97024.09
2018-04-29T18:26:11.271Z,97026.03
2018-04-29T18:28:38.956Z,97027.83
2018-04-29T18:31:06.471Z,97028.14
2018-04-29T18:33:33.964Z,97030.89
2018-04-29T18:36:01.424Z,97029.37
2018-04-29T18:38:28.910Z,97032.64
2018-04-29T18:40:56.416Z,97036.91
2018-04-29T18:43:23.878Z,97040.24
2018-04-29T18:45:51.960Z,97032.78
2018-04-29T18:48:19.418Z,97041.61
2018-04-29T18:50:47.035Z,97034.78
2018-04-29T18:53:14.390Z,97031.96
2018-04-29T18:55:41.856Z,97031.90
2018-04-29T18:58:09.332Z,97039.14
2018-04-29T19:00:36.807Z,97033.73
2018-04-29T19:03:04.284Z,97034.07
2018-04-29T19:05:38.502Z,97037.63
2018-04-29T19:08:05.976Z,97038.17
2018-04-29T19:10:33.424Z,97033.22
2018-04-29T19:13:00.899Z,97036.44
2018-04-29T19:15:28.380Z,97037.11
2018-04-29T19:17:55.840Z,97040.16
2018-04-29T19:20:23.344Z,97048.95
2018-04-29T19:22:50.869Z,97046.54
2018-04-29T19:25:18.279Z,97045.95
2018-04-29T19:27:45.845Z,97043.25
2018-04-29T19:30:13.315Z,97046.09
2018-04-29T19:32:40.812Z,97048.13
2018-04-29T19:35:08.277Z,97044.59
2018-04-29T19:37:35.737Z,97061.22
2018-04-29T19:40:03.212Z,97057.05
2018-04-29T19:42:30.669Z,97058.07
2018-04-29T19:44:58.174Z,97057.38
2018-04-29T19:47:25.634Z,97058.48
2018-04-29T19:49:54.032Z,97057.99
2018-04-29T19:52:21.523Z,97063.14
2018-04-29T19:54:48.989Z,97054.78
2018-04-29T19:57:16.463Z,97054.39
2018-04-29T19:59:43.934Z,97047.91
2018-04-29T20:02:11.399Z,97049.25
2018-04-29T20:04:38.882Z,97042.75
2018-04-29T20:07:06.352Z,97037.58
2018-04-29T20:09:33.844Z,97037.40
2018-04-29T20:12:01.304Z,97040.06
2018-04-29T20:14:28.789Z,97026.05
2018-04-29T20:16:56.251Z,97031.31
2018-04-29T20:19:23.724Z,97028.73
2018-04-29T20:21:51.204Z,97023.38
2018-04-29T20:24:18.664Z,97020.48
2018-04-29T20:26:46.136Z,97025.95
2018-04-29T20:29:13.596Z,97025.45
2018-04-29T20:31:41.089Z,97022.55
2018-04-29T20:34:08.553Z,97015.72
2018-04-29T20:36:36.049Z,97016.45
2018-04-29T20:39:03.518Z,97012.36
2018-04-29T20:41:30.975Z,97012.28
2018-04-29T20:43:58.454Z,97014.84
2018-04-29T20:46:25.910Z,97020.39
2018-04-29T20:48:53.387Z,97016.57
2018-04-29T20:51:20.938Z,97012.86
2018-04-29T20:53:48.343Z,97017.68
2018-04-29T20:56:16.152Z,97014.81
2018-04-29T20:58:43.612Z,97015.31
2018-04-29T21:01:11.088Z,97004.97
2018-04-29T21:03:38.564Z,97015.66
2018-04-29T21:06:06.041Z,97009.49
2018-04-29T21:08:33.524Z,97012.83
2018-04-29T21:11:00.981Z,97004.33
2018-04-29T21:13:28.443Z,97001.14
2018-04-29T21:15:55.911Z,97008.08
2018-04-29T21:18:23.380Z,97006.86
2018-04-29T21:20:50.863Z,97000.94
2018-04-29T21:23:18.333Z,96997.42
2018-04-29T21:25:45.796Z,96995.20
2018-04-29T21:28:13.515Z,96992.38
2018-04-29T21:30:40.988Z,96989.85
2018-04-29T21:33:08.464Z,96989.20
2018-04-29T21:35:35.927Z,96981.30
2018-04-29T21:38:03.431Z,96978.51
2018-04-29T21:40:30.885Z,96979.97
2018-04-29T21:42:58.349Z,96973.80
2018-04-29T21:45:25.820Z,96969.18
2018-04-29T21:47:53.289Z,96967.89
2018-04-29T21:50:20.741Z,96969.23
2018-04-29T21:52:48.211Z,96968.72
2018-04-29T21:55:15.672Z,96964.81
2018-04-29T21:57:43.157Z,96963.98
2018-04-29T22:00:10.855Z,96960.34
2018-04-29T22:02:38.316Z,96964.95
2018-04-29T22:05:05.787Z,96968.63
2018-04-29T22:07:33.257Z,96979.70
2018-04-29T22:10:00.743Z,96979.12
2018-04-29T22:12:28.204Z,96977.23
2018-04-29T22:14:55.655Z,96976.20
2018-04-29T22:17:23.132Z,96972.86
2018-04-29T22:19:50.608Z,96977.98
2018-04-29T22:22:18.097Z,96973.74
2018-04-29T22:24:45.568Z,96974.03
2018-04-29T22:27:13.025Z,96969.20
2018-04-29T22:29:40.508Z,96966.47
2018-04-29T22:32:07.967Z,96969.12
2018-04-29T22:34:35.449Z,96967.52
2018-04-29T22:37:02.998Z,96964.56
2018-04-29T22:39:30.402Z,96963.04
2018-04-29T22:41:57.887Z,96960.92
2018-04-29T22:44:25.360Z,96955.92
2018-04-29T22:46:52.832Z,96946.52
2018-04-29T22:49:20.291Z,96949.66
2018-04-29T22:51:47.744Z,96949.59
2018-04-29T22:54:15.240Z,96942.45
2018-04-29T22:56:42.708Z,96944.78
2018-04-29T22:59:10.175Z,96950.30
2018-04-29T23:01:37.664Z,96951.55
2018-04-29T23:04:05.143Z,96945.97
2018-04-29T23:06:32.778Z,96943.07
2018-04-29T23:09:00.238Z,96935.37
2018-04-29T23:11:27.696Z,96948.41
2018-04-29T23:13:55.185Z,96939.84
2018-04-29T23:16:22.651Z,96922.55
2018-04-29T23:18:50.131Z,96925.95
2018-04-29T23:21:17.600Z,96929.08
2018-04-29T23:23:45.068Z,96931.03
2018-04-29T23:26:12.551Z,96927.79
2018-04-29T23:28:40.579Z,96925.39
2018-04-29T23:31:08.063Z,96923.76
2018-04-29T23:33:35.529Z,96912.44
2018-04-29T23:36:02.983Z,96916.68
2018-04-29T23:38:30.465Z,96905.78
2018-04-29T23:40:57.923Z,96901.43
2018-04-29T23:43:25.392Z,96902.08
2018-04-29T23:45:52.879Z,96901.30
2018-04-29T23:48:20.337Z,96897.75
2018-04-29T23:50:47.807Z,96893.67
2018-04-29T23:53:15.272Z,96891.84
2018-04-29T23:55:42.745Z,96882.09
2018-04-29T23:58:10.240Z,96884.66
